createdAt,value
2017-10-30T00:00:01.818Z,1005.47
2017-10-30T00:01:13.822Z,1005.53
2017-10-30T00:02:26.112Z,1005.56
2017-10-30T00:03:38.732Z,1005.47
2017-10-30T00:04:50.689Z,1005.52
2017-10-30T00:06:02.981Z,1005.57
2017-10-30T00:07:15.257Z,1005.53
2017-10-30T00:08:27.546Z,1005.54
2017-10-30T00:09:39.842Z,1005.51
2017-10-30T00:10:52.440Z,1005.55
2017-10-30T00:12:04.740Z,1005.6
2017-10-30T00:13:17.331Z,1005.54
2017-10-30T00:14:29.990Z,1005.52
2017-10-30T00:15:42.578Z,1005.58
2017-10-30T00:16:55.183Z,1005.56
2017-10-30T00:18:07.459Z,1005.55
2017-10-30T00:19:20.063Z,1005.62
2017-10-30T00:20:32.680Z,1005.58
2017-10-30T00:21:45.293Z,1005.62
2017-10-30T00:22:57.542Z,1005.61
2017-10-30T00:24:09.804Z,1005.67
2017-10-30T00:25:22.441Z,1005.65
2017-10-30T00:26:35.054Z,1005.71
2017-10-30T00:27:47.674Z,1005.71
2017-10-30T00:28:59.648Z,1005.73
2017-10-30T00:30:11.962Z,1005.84
2017-10-30T00:31:24.575Z,1005.78
2017-10-30T00:32:36.536Z,1005.81
2017-10-30T00:33:48.832Z,1005.73
2017-10-30T00:35:01.161Z,1005.88
2017-10-30T00:36:13.724Z,1005.8
2017-10-30T00:37:26.336Z,1005.82
2017-10-30T00:38:38.936Z,1005.89
2017-10-30T00:39:51.205Z,1005.89
2017-10-30T00:41:03.806Z,1005.93
2017-10-30T00:42:16.440Z,1005.97
2017-10-30T00:43:29.046Z,1005.95
2017-10-30T00:44:41.338Z,1005.96
2017-10-30T00:45:53.936Z,1005.95
2017-10-30T00:47:06.223Z,1005.96
2017-10-30T00:48:18.499Z,1005.97
2017-10-30T00:49:30.452Z,1006.03
2017-10-30T00:50:43.088Z,1005.97
2017-10-30T00:51:55.361Z,1005.89
2017-10-30T00:53:07.353Z,1005.94
2017-10-30T00:54:19.312Z,1005.99
2017-10-30T00:55:31.917Z,1006.04
2017-10-30T00:56:44.524Z,1006.04
2017-10-30T00:57:56.817Z,1006.08
2017-10-30T00:59:09.416Z,1006.08
2017-10-30T01:00:22.050Z,1006.22
2017-10-30T01:01:34.628Z,1006.14
2017-10-30T01:02:46.916Z,1006.12
2017-10-30T01:03:59.511Z,1006.14
2017-10-30T01:05:11.160Z,1006.11
2017-10-30T01:06:23.436Z,1006.11
2017-10-30T01:07:36.035Z,1006.22
2017-10-30T01:08:48.673Z,1006.19
2017-10-30T01:10:00.952Z,1006.11
2017-10-30T01:11:13.572Z,1006.09
2017-10-30T01:12:25.841Z,1006.12
2017-10-30T01:13:38.434Z,1006.11
2017-10-30T01:14:51.023Z,1006.13
2017-10-30T01:16:03.329Z,1006.12
2017-10-30T01:17:15.925Z,1006.14
2017-10-30T01:18:28.518Z,1006.18
2017-10-30T01:19:41.380Z,1006.23
2017-10-30T01:20:52.688Z,1006.21
2017-10-30T01:22:04.984Z,1006.15
2017-10-30T01:23:17.577Z,1006.17
2017-10-30T01:24:30.199Z,1006.22
2017-10-30T01:25:42.825Z,1006.2
2017-10-30T01:26:55.428Z,1006.25
2017-10-30T01:28:07.735Z,1006.22
2017-10-30T01:29:19.679Z,1006.23
2017-10-30T01:30:32.281Z,1006.24
2017-10-30T01:31:44.614Z,1006.27
2017-10-30T01:32:57.259Z,1006.25
2017-10-30T01:34:09.536Z,1006.31
2017-10-30T01:35:22.137Z,1006.32
2017-10-30T01:36:34.795Z,1006.36
2017-10-30T01:37:47.119Z,1006.37
2017-10-30T01:38:59.423Z,1006.37
2017-10-30T01:40:12.014Z,1006.32
2017-10-30T01:41:24.629Z,1006.31
2017-10-30T01:42:37.225Z,1006.32
2017-10-30T01:43:49.826Z,1006.32
2017-10-30T01:45:02.126Z,1006.39
2017-10-30T01:46:14.743Z,1006.37
2017-10-30T01:47:27.338Z,1006.35
2017-10-30T01:48:39.607Z,1006.4
2017-10-30T01:49:51.900Z,1006.37
2017-10-30T01:51:04.200Z,1006.37
2017-10-30T01:52:16.813Z,1006.39
2017-10-30T01:53:29.099Z,1006.41
2017-10-30T01:54:41.739Z,1006.36
2017-10-30T01:55:54.325Z,1006.44
2017-10-30T01:57:06.919Z,1006.41
2017-10-30T01:58:18.876Z,1006.48
2017-10-30T01:59:31.449Z,1006.49
2017-10-30T02:00:43.739Z,1006.49
2017-10-30T02:01:55.716Z,1006.56
2017-10-30T02:03:07.985Z,1006.46
2017-10-30T02:04:20.609Z,1006.52
2017-10-30T02:05:32.877Z,1006.53
2017-10-30T02:06:45.122Z,1006.43
2017-10-30T02:07:57.714Z,1006.57
2017-10-30T02:09:10.239Z,1006.55
2017-10-30T02:10:22.856Z,1006.5
2017-10-30T02:11:35.129Z,1006.49
2017-10-30T02:12:47.428Z,1006.53
2017-10-30T02:14:00.019Z,1006.58
2017-10-30T02:15:12.316Z,1006.65
2017-10-30T02:16:24.284Z,1006.65
2017-10-30T02:17:36.539Z,1006.66
2017-10-30T02:18:49.149Z,1006.67
2017-10-30T02:20:01.099Z,1006.7
2017-10-30T02:21:13.369Z,1006.68
2017-10-30T02:22:25.965Z,1006.59
2017-10-30T02:23:38.586Z,1006.69
2017-10-30T02:24:51.203Z,1006.62
2017-10-30T02:26:03.782Z,1006.67
2017-10-30T02:27:16.073Z,1006.72
2017-10-30T02:28:28.715Z,1006.76
2017-10-30T02:29:40.991Z,1006.73
2017-10-30T02:30:53.606Z,1006.74
2017-10-30T02:32:05.930Z,1006.78
2017-10-30T02:33:18.246Z,1006.74
2017-10-30T02:34:30.838Z,1006.73
2017-10-30T02:35:43.437Z,1006.76
2017-10-30T02:36:56.013Z,1006.69
2017-10-30T02:38:08.651Z,1006.71
2017-10-30T02:39:20.928Z,1006.73
2017-10-30T02:40:33.213Z,1006.78
2017-10-30T02:41:45.824Z,1006.77
2017-10-30T02:42:58.415Z,1006.8
2017-10-30T02:44:11.058Z,1006.79
2017-10-30T02:45:23.031Z,1006.84
2017-10-30T02:46:35.625Z,1006.86
2017-10-30T02:47:48.229Z,1006.92
2017-10-30T02:49:00.508Z,1006.94
2017-10-30T02:50:12.778Z,1006.96
2017-10-30T02:51:25.085Z,1007.06
2017-10-30T02:52:37.677Z,1007.01
2017-10-30T02:53:50.298Z,1007.05
2017-10-30T02:55:02.573Z,1007.04
2017-10-30T02:56:15.194Z,1007.03
2017-10-30T02:57:28.068Z,1007.07
2017-10-30T02:58:40.698Z,1007.11
2017-10-30T02:59:52.956Z,1007.14
2017-10-30T03:01:05.248Z,1007.17
2017-10-30T03:02:17.817Z,1007.13
2017-10-30T03:03:29.814Z,1007.15
2017-10-30T03:04:42.411Z,1007.19
2017-10-30T03:05:55.029Z,1007.15
2017-10-30T03:07:07.653Z,1007.08
2017-10-30T03:08:20.226Z,1007.17
2017-10-30T03:09:32.827Z,1007.09
2017-10-30T03:10:45.467Z,1007.14
2017-10-30T03:11:57.766Z,1007.18
2017-10-30T03:13:10.373Z,1007.23
2017-10-30T03:14:22.966Z,1007.24
2017-10-30T03:15:35.252Z,1007.22
2017-10-30T03:16:47.907Z,1007.18
2017-10-30T03:18:00.511Z,1007.23
2017-10-30T03:19:12.806Z,1007.27
2017-10-30T03:20:25.422Z,1007.3
2017-10-30T03:21:37.702Z,1007.23
2017-10-30T03:22:49.968Z,1007.28
2017-10-30T03:24:02.560Z,1007.35
2017-10-30T03:25:14.884Z,1007.4
2017-10-30T03:26:27.461Z,1007.45
2017-10-30T03:27:40.128Z,1007.49
2017-10-30T03:28:52.721Z,1007.42
2017-10-30T03:30:05.597Z,1007.53
2017-10-30T03:31:17.864Z,1007.61
2017-10-30T03:32:30.159Z,1007.6
2017-10-30T03:33:42.456Z,1007.59
2017-10-30T03:34:54.725Z,1007.58
2017-10-30T03:36:07.324Z,1007.53
2017-10-30T03:37:19.621Z,1007.51
2017-10-30T03:38:31.895Z,1007.54
2017-10-30T03:39:44.488Z,1007.53
2017-10-30T03:40:57.062Z,1007.54
2017-10-30T03:42:09.716Z,1007.52
2017-10-30T03:43:22.315Z,1007.61
2017-10-30T03:44:34.947Z,1007.57
2017-10-30T03:45:47.568Z,1007.61
2017-10-30T03:46:59.206Z,1007.62
2017-10-30T03:48:11.498Z,1007.64
2017-10-30T03:49:23.777Z,1007.77
2017-10-30T03:50:36.072Z,1007.76
2017-10-30T03:51:48.663Z,1007.75
2017-10-30T03:53:00.938Z,1007.73
2017-10-30T03:54:13.180Z,1007.71
2017-10-30T03:55:25.126Z,1007.69
2017-10-30T03:56:37.721Z,1007.66
2017-10-30T03:57:50.013Z,1007.65
2017-10-30T03:59:02.621Z,1007.66
2017-10-30T04:00:14.918Z,1007.6
2017-10-30T04:01:27.208Z,1007.57
2017-10-30T04:02:39.821Z,1007.58
2017-10-30T04:03:52.441Z,1007.6
2017-10-30T04:05:05.019Z,1007.58
2017-10-30T04:06:17.314Z,1007.64
2017-10-30T04:07:29.910Z,1007.64
2017-10-30T04:08:42.531Z,1007.65
2017-10-30T04:09:54.801Z,1007.75
2017-10-30T04:11:07.420Z,1007.74
2017-10-30T04:12:20.020Z,1007.74
2017-10-30T04:13:32.656Z,1007.81
2017-10-30T04:14:45.260Z,1007.83
2017-10-30T04:15:57.869Z,1007.85
2017-10-30T04:17:10.164Z,1007.89
2017-10-30T04:18:22.447Z,1007.86
2017-10-30T04:19:34.740Z,1007.95
2017-10-30T04:20:47.009Z,1008
2017-10-30T04:21:58.634Z,1008.06
2017-10-30T04:23:11.225Z,1008.13
2017-10-30T04:24:24.125Z,1008.13
2017-10-30T04:25:36.421Z,1008.11
2017-10-30T04:26:49.035Z,1008.17
2017-10-30T04:28:01.332Z,1008.21
2017-10-30T04:29:13.609Z,1008.17
2017-10-30T04:30:25.548Z,1008.15
2017-10-30T04:31:38.187Z,1008.21
2017-10-30T04:32:50.793Z,1008.24
2017-10-30T04:34:03.406Z,1008.15
2017-10-30T04:35:15.678Z,1008.24
2017-10-30T04:36:28.311Z,1008.29
2017-10-30T04:37:40.922Z,1008.28
2017-10-30T04:38:52.898Z,1008.33
2017-10-30T04:40:05.517Z,1008.31
2017-10-30T04:41:17.481Z,1008.35
2017-10-30T04:42:30.059Z,1008.34
2017-10-30T04:43:42.676Z,1008.31
2017-10-30T04:44:55.274Z,1008.34
2017-10-30T04:46:07.847Z,1008.29
2017-10-30T04:47:20.156Z,1008.42
2017-10-30T04:48:32.741Z,1008.34
2017-10-30T04:49:45.353Z,1008.37
2017-10-30T04:50:57.953Z,1008.37
2017-10-30T04:52:10.567Z,1008.4
2017-10-30T04:53:23.162Z,1008.36
2017-10-30T04:54:35.763Z,1008.4
2017-10-30T04:55:48.363Z,1008.41
2017-10-30T04:57:00.957Z,1008.42
2017-10-30T04:58:13.252Z,1008.4
2017-10-30T04:59:25.874Z,1008.41
2017-10-30T05:00:38.166Z,1008.43
2017-10-30T05:01:50.740Z,1008.39
2017-10-30T05:03:03.591Z,1008.41
2017-10-30T05:04:15.876Z,1008.47
2017-10-30T05:05:28.477Z,1008.36
2017-10-30T05:06:41.089Z,1008.43
2017-10-30T05:07:53.721Z,1008.56
2017-10-30T05:09:06.315Z,1008.48
2017-10-30T05:10:18.950Z,1008.53
2017-10-30T05:11:31.551Z,1008.57
2017-10-30T05:12:44.154Z,1008.57
2017-10-30T05:13:56.472Z,1008.66
2017-10-30T05:15:09.119Z,1008.64
2017-10-30T05:16:21.737Z,1008.66
2017-10-30T05:17:33.383Z,1008.68
2017-10-30T05:18:45.692Z,1008.67
2017-10-30T05:19:58.002Z,1008.73
2017-10-30T05:21:10.634Z,1008.71
2017-10-30T05:22:23.242Z,1008.76
2017-10-30T05:23:35.823Z,1008.72
2017-10-30T05:24:48.105Z,1008.75
2017-10-30T05:26:00.723Z,1008.67
2017-10-30T05:27:12.998Z,1008.7
2017-10-30T05:28:25.614Z,1008.67
2017-10-30T05:29:38.189Z,1008.73
2017-10-30T05:30:50.786Z,1008.71
2017-10-30T05:32:03.405Z,1008.71
2017-10-30T05:33:16.002Z,1008.72
2017-10-30T05:34:28.593Z,1008.69
2017-10-30T05:35:40.885Z,1008.7
2017-10-30T05:36:53.505Z,1008.69
2017-10-30T05:38:06.106Z,1008.78
2017-10-30T05:39:18.429Z,1008.82
2017-10-30T05:40:30.689Z,1008.79
2017-10-30T05:41:42.988Z,1008.89
2017-10-30T05:42:55.602Z,1008.9
2017-10-30T05:44:08.210Z,1008.91
2017-10-30T05:45:20.499Z,1008.95
2017-10-30T05:46:33.100Z,1008.99
2017-10-30T05:47:45.390Z,1009.03
2017-10-30T05:48:57.664Z,1009.05
2017-10-30T05:50:10.261Z,1009.08
2017-10-30T05:51:22.207Z,1009.06
2017-10-30T05:52:34.806Z,1009.13
2017-10-30T05:53:47.420Z,1009.24
2017-10-30T05:55:00.019Z,1009.16
2017-10-30T05:56:12.657Z,1009.19
2017-10-30T05:57:24.635Z,1009.19
2017-10-30T05:58:36.914Z,1009.2
2017-10-30T05:59:48.893Z,1009.25
2017-10-30T06:01:01.490Z,1009.17
2017-10-30T06:02:13.802Z,1009.17
2017-10-30T06:03:26.395Z,1009.17
2017-10-30T06:04:39.014Z,1009.2
2017-10-30T06:05:51.325Z,1009.22
2017-10-30T06:07:03.297Z,1009.18
2017-10-30T06:08:15.875Z,1009.21
2017-10-30T06:09:28.465Z,1009.24
2017-10-30T06:10:41.069Z,1009.37
2017-10-30T06:11:53.706Z,1009.36
2017-10-30T06:13:05.981Z,1009.34
2017-10-30T06:14:18.577Z,1009.41
2017-10-30T06:15:31.166Z,1009.44
2017-10-30T06:16:43.457Z,1009.52
2017-10-30T06:17:56.061Z,1009.49
2017-10-30T06:19:08.676Z,1009.48
2017-10-30T06:20:21.311Z,1009.51
2017-10-30T06:21:33.927Z,1009.53
2017-10-30T06:22:46.237Z,1009.53
2017-10-30T06:23:58.197Z,1009.66
2017-10-30T06:25:10.505Z,1009.62
2017-10-30T06:26:23.126Z,1009.64
2017-10-30T06:27:35.734Z,1009.69
2017-10-30T06:28:48.024Z,1009.72
2017-10-30T06:30:00.346Z,1009.68
2017-10-30T06:31:12.623Z,1009.78
2017-10-30T06:32:25.255Z,1009.76
2017-10-30T06:33:37.232Z,1009.75
2017-10-30T06:34:49.851Z,1009.75
2017-10-30T06:36:02.439Z,1009.87
2017-10-30T06:37:14.372Z,1009.9
2017-10-30T06:38:26.658Z,1009.98
2017-10-30T06:39:38.910Z,1009.92
2017-10-30T06:40:51.171Z,1009.92
2017-10-30T06:42:03.777Z,1009.97
2017-10-30T06:43:16.398Z,1009.98
2017-10-30T06:44:29.012Z,1009.98
2017-10-30T06:45:41.911Z,1010.01
2017-10-30T06:46:54.202Z,1010.01
2017-10-30T06:48:06.826Z,1010.03
2017-10-30T06:49:19.443Z,1010.1
2017-10-30T06:50:32.036Z,1010.08
2017-10-30T06:51:44.643Z,1010.11
2017-10-30T06:52:57.240Z,1010.1
2017-10-30T06:54:09.848Z,1010.17
2017-10-30T06:55:22.452Z,1010.21
2017-10-30T06:56:34.414Z,1010.23
2017-10-30T06:57:47.035Z,1010.24
2017-10-30T06:58:59.639Z,1010.23
2017-10-30T07:00:12.260Z,1010.28
2017-10-30T07:01:24.847Z,1010.28
2017-10-30T07:02:37.137Z,1010.3
2017-10-30T07:03:49.766Z,1010.33
2017-10-30T07:05:02.367Z,1010.34
2017-10-30T07:06:15.005Z,1010.35
2017-10-30T07:07:27.877Z,1010.38
2017-10-30T07:08:40.185Z,1010.43
2017-10-30T07:09:52.774Z,1010.48
2017-10-30T07:11:05.377Z,1010.5
2017-10-30T07:12:17.968Z,1010.5
2017-10-30T07:13:29.931Z,1010.59
2017-10-30T07:14:42.206Z,1010.57
2017-10-30T07:15:54.507Z,1010.57
2017-10-30T07:17:07.108Z,1010.54
2017-10-30T07:18:19.672Z,1010.73
2017-10-30T07:19:32.286Z,1010.69
2017-10-30T07:20:44.602Z,1010.69
2017-10-30T07:21:57.186Z,1010.68
2017-10-30T07:23:09.505Z,1010.68
2017-10-30T07:24:22.099Z,1010.8
2017-10-30T07:25:34.395Z,1010.72
2017-10-30T07:26:46.966Z,1010.74
2017-10-30T07:27:59.238Z,1010.82
2017-10-30T07:29:11.884Z,1010.82
2017-10-30T07:30:24.176Z,1010.86
2017-10-30T07:31:36.498Z,1010.84
2017-10-30T07:32:49.108Z,1010.81
2017-10-30T07:34:01.730Z,1010.84
2017-10-30T07:35:14.362Z,1010.81
2017-10-30T07:36:26.999Z,1010.8
2017-10-30T07:37:39.273Z,1010.89
2017-10-30T07:38:51.863Z,1010.96
2017-10-30T07:40:04.456Z,1010.99
2017-10-30T07:41:17.077Z,1011.02
2017-10-30T07:42:29.709Z,1010.98
2017-10-30T07:43:41.656Z,1011.16
2017-10-30T07:44:54.301Z,1011.09
2017-10-30T07:46:06.923Z,1011.09
2017-10-30T07:47:19.521Z,1011.13
2017-10-30T07:48:32.179Z,1011.24
2017-10-30T07:49:44.783Z,1011.2
2017-10-30T07:50:57.403Z,1011.17
2017-10-30T07:52:09.675Z,1011.28
2017-10-30T07:53:21.971Z,1011.29
2017-10-30T07:54:34.591Z,1011.32
2017-10-30T07:55:46.904Z,1011.3
2017-10-30T07:56:59.509Z,1011.33
2017-10-30T07:58:11.804Z,1011.36
2017-10-30T07:59:24.424Z,1011.34
2017-10-30T08:00:36.745Z,1011.39
2017-10-30T08:01:49.285Z,1011.4
2017-10-30T08:03:01.885Z,1011.29
2017-10-30T08:04:14.205Z,1011.34
2017-10-30T08:05:26.804Z,1011.41
2017-10-30T08:06:39.439Z,1011.45
2017-10-30T08:07:51.730Z,1011.52
2017-10-30T08:09:04.013Z,1011.59
2017-10-30T08:10:16.612Z,1011.5
2017-10-30T08:11:29.200Z,1011.57
2017-10-30T08:12:41.801Z,1011.64
2017-10-30T08:13:54.417Z,1011.54
2017-10-30T08:15:07.067Z,1011.61
2017-10-30T08:16:19.664Z,1011.59
2017-10-30T08:17:32.258Z,1011.54
2017-10-30T08:18:44.853Z,1011.65
2017-10-30T08:19:56.826Z,1011.54
2017-10-30T08:21:09.408Z,1011.56
2017-10-30T08:22:22.016Z,1011.6
2017-10-30T08:23:34.289Z,1011.62
2017-10-30T08:24:46.882Z,1011.74
2017-10-30T08:25:59.478Z,1011.64
2017-10-30T08:27:12.087Z,1011.63
2017-10-30T08:28:24.691Z,1011.72
2017-10-30T08:29:36.637Z,1011.68
2017-10-30T08:30:48.883Z,1011.72
2017-10-30T08:32:01.151Z,1011.7
2017-10-30T08:33:13.441Z,1011.75
2017-10-30T08:34:25.411Z,1011.78
2017-10-30T08:35:38.008Z,1011.75
2017-10-30T08:36:50.624Z,1011.81
2017-10-30T08:38:03.208Z,1011.82
2017-10-30T08:39:15.811Z,1011.88
2017-10-30T08:40:28.424Z,1011.9
2017-10-30T08:41:40.709Z,1011.89
2017-10-30T08:42:53.334Z,1011.86
2017-10-30T08:44:05.961Z,1011.89
2017-10-30T08:45:17.925Z,1011.95
2017-10-30T08:46:30.533Z,1011.88
2017-10-30T08:47:43.195Z,1011.95
2017-10-30T08:48:55.832Z,1012.08
2017-10-30T08:50:08.116Z,1012.03
2017-10-30T08:51:20.754Z,1012.06
2017-10-30T08:52:33.029Z,1012.11
2017-10-30T08:53:45.627Z,1012.15
2017-10-30T08:54:58.223Z,1012.1
2017-10-30T08:56:10.833Z,1012.04
2017-10-30T08:57:23.455Z,1012.08
2017-10-30T08:58:35.753Z,1012.08
2017-10-30T08:59:47.733Z,1012.08
2017-10-30T09:01:00.347Z,1012.09
2017-10-30T09:02:12.946Z,1012.17
2017-10-30T09:03:25.268Z,1012.09
2017-10-30T09:04:37.538Z,1012.19
2017-10-30T09:05:50.160Z,1012.16
2017-10-30T09:07:02.781Z,1012.15
2017-10-30T09:08:15.422Z,1012.15
2017-10-30T09:09:28.017Z,1012.18
2017-10-30T09:10:40.638Z,1012.2
2017-10-30T09:11:52.949Z,1012.17
2017-10-30T09:13:05.246Z,1012.28
2017-10-30T09:14:17.828Z,1012.4
2017-10-30T09:15:30.449Z,1012.26
2017-10-30T09:16:43.043Z,1012.23
2017-10-30T09:17:55.891Z,1012.26
2017-10-30T09:19:08.489Z,1012.28
2017-10-30T09:20:21.131Z,1012.24
2017-10-30T09:21:33.399Z,1012.24
2017-10-30T09:22:45.698Z,1012.24
2017-10-30T09:23:58.292Z,1012.26
2017-10-30T09:25:10.589Z,1012.37
2017-10-30T09:26:22.909Z,1012.36
2017-10-30T09:27:35.527Z,1012.34
2017-10-30T09:28:47.823Z,1012.28
2017-10-30T09:30:00.422Z,1012.34
2017-10-30T09:31:12.742Z,1012.24
2017-10-30T09:32:25.344Z,1012.29
2017-10-30T09:33:37.982Z,1012.34
2017-10-30T09:34:50.575Z,1012.33
2017-10-30T09:36:02.875Z,1012.38
2017-10-30T09:37:15.510Z,1012.35
2017-10-30T09:38:28.115Z,1012.34
2017-10-30T09:39:40.401Z,1012.42
2017-10-30T09:40:53.024Z,1012.41
2017-10-30T09:42:05.299Z,1012.42
2017-10-30T09:43:17.899Z,1012.42
2017-10-30T09:44:30.194Z,1012.44
2017-10-30T09:45:42.159Z,1012.43
2017-10-30T09:46:54.124Z,1012.42
2017-10-30T09:48:06.403Z,1012.44
2017-10-30T09:49:18.698Z,1012.49
2017-10-30T09:50:30.965Z,1012.5
2017-10-30T09:51:43.588Z,1012.57
2017-10-30T09:52:56.227Z,1012.54
2017-10-30T09:54:08.848Z,1012.51
2017-10-30T09:55:21.494Z,1012.51
2017-10-30T09:56:33.475Z,1012.53
2017-10-30T09:57:45.750Z,1012.55
2017-10-30T09:58:57.734Z,1012.56
2017-10-30T10:00:10.334Z,1012.52
2017-10-30T10:01:23.180Z,1012.56
2017-10-30T10:02:35.820Z,1012.57
2017-10-30T10:03:48.448Z,1012.59
2017-10-30T10:05:00.720Z,1012.67
2017-10-30T10:06:12.997Z,1012.63
2017-10-30T10:07:25.299Z,1012.75
2017-10-30T10:08:37.904Z,1012.64
2017-10-30T10:09:50.516Z,1012.61
2017-10-30T10:11:03.128Z,1012.66
2017-10-30T10:12:15.111Z,1012.66
2017-10-30T10:13:27.733Z,1012.55
2017-10-30T10:14:39.708Z,1012.66
2017-10-30T10:15:51.981Z,1012.68
2017-10-30T10:17:04.580Z,1012.62
2017-10-30T10:18:17.186Z,1012.53
2017-10-30T10:19:29.792Z,1012.59
2017-10-30T10:20:42.062Z,1012.52
2017-10-30T10:21:54.376Z,1012.56
2017-10-30T10:23:06.684Z,1012.58
2017-10-30T10:24:18.976Z,1012.63
2017-10-30T10:25:31.613Z,1012.67
2017-10-30T10:26:44.208Z,1012.75
2017-10-30T10:27:56.817Z,1012.69
2017-10-30T10:29:09.434Z,1012.66
2017-10-30T10:30:22.056Z,1012.66
2017-10-30T10:31:34.023Z,1012.66
2017-10-30T10:32:46.310Z,1012.63
2017-10-30T10:33:58.587Z,1012.65
2017-10-30T10:35:10.857Z,1012.71
2017-10-30T10:36:23.472Z,1012.7
2017-10-30T10:37:36.048Z,1012.66
2017-10-30T10:38:48.340Z,1012.76
2017-10-30T10:40:00.617Z,1012.74
2017-10-30T10:41:13.232Z,1012.75
2017-10-30T10:42:25.864Z,1012.66
2017-10-30T10:43:37.869Z,1012.67
2017-10-30T10:44:50.474Z,1012.63
2017-10-30T10:46:02.751Z,1012.7
2017-10-30T10:47:15.042Z,1012.7
2017-10-30T10:48:27.311Z,1012.82
2017-10-30T10:49:39.926Z,1012.81
2017-10-30T10:50:52.200Z,1012.69
2017-10-30T10:52:04.825Z,1012.72
2017-10-30T10:53:17.404Z,1012.79
2017-10-30T10:54:29.687Z,1012.67
2017-10-30T10:55:42.308Z,1012.61
2017-10-30T10:56:54.934Z,1012.77
2017-10-30T10:58:07.531Z,1012.75
2017-10-30T10:59:19.800Z,1012.7
2017-10-30T11:00:32.111Z,1012.81
2017-10-30T11:01:44.730Z,1012.61
2017-10-30T11:02:57.007Z,1012.73
2017-10-30T11:04:09.606Z,1012.79
2017-10-30T11:05:22.174Z,1012.75
2017-10-30T11:06:34.474Z,1012.68
2017-10-30T11:07:47.144Z,1012.76
2017-10-30T11:08:59.440Z,1012.91
2017-10-30T11:10:11.753Z,1012.82
2017-10-30T11:11:24.402Z,1012.88
2017-10-30T11:12:37.001Z,1012.9
2017-10-30T11:13:49.314Z,1012.88
2017-10-30T11:15:01.943Z,1012.93
2017-10-30T11:16:14.262Z,1012.99
2017-10-30T11:17:27.156Z,1013.05
2017-10-30T11:18:39.425Z,1013.03
2017-10-30T11:19:51.708Z,1013.01
2017-10-30T11:21:04.321Z,1013.11
2017-10-30T11:22:16.616Z,1013.03
2017-10-30T11:23:29.236Z,1013.05
2017-10-30T11:24:41.846Z,1012.97
2017-10-30T11:25:54.451Z,1013.06
2017-10-30T11:27:06.420Z,1012.99
2017-10-30T11:28:18.695Z,1013.01
2017-10-30T11:29:31.288Z,1012.98
2017-10-30T11:30:43.863Z,1012.95
2017-10-30T11:31:56.452Z,1012.97
2017-10-30T11:33:08.744Z,1013.13
2017-10-30T11:34:21.370Z,1013.11
2017-10-30T11:35:33.649Z,1013.18
2017-10-30T11:36:46.235Z,1013.08
2017-10-30T11:37:58.834Z,1013.11
2017-10-30T11:39:11.446Z,1013.2
2017-10-30T11:40:23.722Z,1013.16
2017-10-30T11:41:36.321Z,1013.17
2017-10-30T11:42:48.934Z,1013.17
2017-10-30T11:44:01.210Z,1013.11
2017-10-30T11:45:13.806Z,1013.28
2017-10-30T11:46:26.424Z,1013.15
2017-10-30T11:47:38.715Z,1013.14
2017-10-30T11:48:50.716Z,1013.21
2017-10-30T11:50:02.710Z,1013.26
2017-10-30T11:51:15.012Z,1013.11
2017-10-30T11:52:27.641Z,1013.26
2017-10-30T11:53:40.229Z,1013.2
2017-10-30T11:54:52.822Z,1013.16
2017-10-30T11:56:05.111Z,1013.27
2017-10-30T11:57:17.416Z,1013.29
2017-10-30T11:58:30.040Z,1013.29
2017-10-30T11:59:42.319Z,1013.25
2017-10-30T12:00:54.940Z,1013.31
2017-10-30T12:02:07.236Z,1013.3
2017-10-30T12:03:19.867Z,1013.33
2017-10-30T12:04:31.856Z,1013.29
2017-10-30T12:05:44.127Z,1013.35
2017-10-30T12:06:56.430Z,1013.36
2017-10-30T12:08:08.723Z,1013.4
2017-10-30T12:09:21.038Z,1013.37
2017-10-30T12:10:33.643Z,1013.43
2017-10-30T12:11:46.258Z,1013.46
2017-10-30T12:12:58.572Z,1013.47
2017-10-30T12:14:10.879Z,1013.55
2017-10-30T12:15:22.813Z,1013.53
2017-10-30T12:16:35.113Z,1013.58
2017-10-30T12:17:47.416Z,1013.49
2017-10-30T12:18:59.987Z,1013.57
2017-10-30T12:20:12.581Z,1013.72
2017-10-30T12:21:24.544Z,1013.77
2017-10-30T12:22:37.150Z,1013.8
2017-10-30T12:23:49.741Z,1013.73
2017-10-30T12:25:02.017Z,1013.69
2017-10-30T12:26:14.288Z,1013.81
2017-10-30T12:27:26.909Z,1013.8
2017-10-30T12:28:39.525Z,1013.92
2017-10-30T12:29:52.126Z,1013.79
2017-10-30T12:31:04.718Z,1013.76
2017-10-30T12:32:17.311Z,1013.87
2017-10-30T12:33:29.911Z,1013.83
2017-10-30T12:34:42.526Z,1013.94
2017-10-30T12:35:55.123Z,1013.84
2017-10-30T12:37:07.420Z,1013.9
2017-10-30T12:38:19.390Z,1013.85
2017-10-30T12:39:32.255Z,1014.05
2017-10-30T12:40:44.582Z,1014.02
2017-10-30T12:41:56.884Z,1014.07
2017-10-30T12:43:09.171Z,1014.23
2017-10-30T12:44:21.485Z,1014.28
2017-10-30T12:45:33.161Z,1014.03
2017-10-30T12:46:45.758Z,1013.87
2017-10-30T12:47:57.731Z,1014.12
2017-10-30T12:49:10.353Z,1014.04
2017-10-30T12:50:22.947Z,1014.1
2017-10-30T12:51:35.536Z,1014.05
2017-10-30T12:52:48.181Z,1014.12
2017-10-30T12:54:00.466Z,1014.05
2017-10-30T12:55:12.773Z,1014.02
2017-10-30T12:56:25.401Z,1014.02
2017-10-30T12:57:37.693Z,1013.95
2017-10-30T12:58:50.292Z,1013.96
2017-10-30T13:00:02.885Z,1014
2017-10-30T13:01:15.439Z,1014.16
2017-10-30T13:02:27.725Z,1014.09
2017-10-30T13:03:40.045Z,1014.13
2017-10-30T13:04:52.038Z,1014.09
2017-10-30T13:06:04.743Z,1014.08
2017-10-30T13:07:17.411Z,1014.15
2017-10-30T13:08:29.362Z,1014.09
2017-10-30T13:09:41.950Z,1014.03
2017-10-30T13:10:54.245Z,1014.14
2017-10-30T13:12:06.841Z,1014.15
2017-10-30T13:13:19.113Z,1014.14
2017-10-30T13:14:31.404Z,1014.06
2017-10-30T13:15:43.401Z,1014.17
2017-10-30T13:16:56.044Z,1014.15
2017-10-30T13:18:07.994Z,1014.23
2017-10-30T13:19:20.593Z,1014.29
2017-10-30T13:20:33.218Z,1014.17
2017-10-30T13:21:45.835Z,1014.19
2017-10-30T13:22:58.480Z,1014.24
2017-10-30T13:24:10.465Z,1014.24
2017-10-30T13:25:22.761Z,1014.18
2017-10-30T13:26:35.017Z,1014.23
2017-10-30T13:27:47.659Z,1014.31
2017-10-30T13:28:59.630Z,1014.32
2017-10-30T13:30:12.256Z,1014.28
2017-10-30T13:31:24.892Z,1014.31
2017-10-30T13:32:37.495Z,1014.33
2017-10-30T13:33:50.095Z,1014.24
2017-10-30T13:35:02.406Z,1014.25
2017-10-30T13:36:15.025Z,1014.18
2017-10-30T13:37:27.303Z,1014.27
2017-10-30T13:38:40.153Z,1014.35
2017-10-30T13:39:52.797Z,1014.27
2017-10-30T13:41:05.114Z,1014.36
2017-10-30T13:42:17.760Z,1014.27
2017-10-30T13:43:30.376Z,1014.31
2017-10-30T13:44:42.678Z,1014.27
2017-10-30T13:45:55.299Z,1014.28
2017-10-30T13:47:07.601Z,1014.34
2017-10-30T13:48:20.210Z,1014.38
2017-10-30T13:49:32.835Z,1014.29
2017-10-30T13:50:45.126Z,1014.31
2017-10-30T13:51:57.751Z,1014.32
2017-10-30T13:53:10.063Z,1014.31
2017-10-30T13:54:22.338Z,1014.34
2017-10-30T13:55:34.637Z,1014.32
2017-10-30T13:56:46.908Z,1014.39
2017-10-30T13:57:59.217Z,1014.4
2017-10-30T13:59:11.495Z,1014.4
2017-10-30T14:00:23.758Z,1014.41
2017-10-30T14:01:36.054Z,1014.42
2017-10-30T14:02:48.012Z,1014.38
2017-10-30T14:04:00.653Z,1014.4
2017-10-30T14:05:13.271Z,1014.41
2017-10-30T14:06:25.590Z,1014.35
2017-10-30T14:07:38.190Z,1014.41
2017-10-30T14:08:50.481Z,1014.42
2017-10-30T14:10:03.061Z,1014.4
2017-10-30T14:11:15.356Z,1014.39
2017-10-30T14:12:27.991Z,1014.43
2017-10-30T14:13:40.614Z,1014.44
2017-10-30T14:14:52.893Z,1014.39
2017-10-30T14:16:05.505Z,1014.36
2017-10-30T14:17:17.784Z,1014.38
2017-10-30T14:18:30.051Z,1014.34
2017-10-30T14:19:42.664Z,1014.36
2017-10-30T14:20:54.621Z,1014.34
2017-10-30T14:22:06.592Z,1014.41
2017-10-30T14:23:19.208Z,1014.35
2017-10-30T14:24:31.500Z,1014.38
2017-10-30T14:25:43.800Z,1014.37
2017-10-30T14:26:56.400Z,1014.37
2017-10-30T14:28:08.346Z,1014.38
2017-10-30T14:29:20.961Z,1014.41
2017-10-30T14:30:33.241Z,1014.38
2017-10-30T14:31:45.534Z,1014.39
2017-10-30T14:32:58.154Z,1014.4
2017-10-30T14:34:10.749Z,1014.37
2017-10-30T14:35:23.086Z,1014.38
2017-10-30T14:36:35.363Z,1014.39
2017-10-30T14:37:47.973Z,1014.44